createdAt,value
2023-02-14T00:02:51.532Z,6.70
2023-02-14T00:08:14.293Z,7.37
2023-02-14T00:13:36.938Z,7.83
2023-02-14T00:19:05.353Z,6.70
2023-02-14T00:24:33.781Z,7.37
2023-02-14T00:29:57.694Z,7.20
2023-02-14T00:41:06.407Z,7.60
2023-02-14T00:46:30.625Z,7.70
2023-02-14T00:51:52.881Z,8.10
2023-02-14T00:57:15.186Z,7.30
2023-02-14T01:02:38.865Z,7.63
2023-02-14T01:08:03.017Z,7.33
2023-02-14T01:13:28.055Z,7.05
2023-02-14T01:18:52.502Z,8.33
2023-02-14T01:24:17.803Z,7.30
2023-02-14T01:29:40.762Z,7.10
2023-02-14T01:35:03.876Z,7.57
2023-02-14T01:40:28.012Z,8.20
2023-02-14T01:45:50.549Z,8.23
2023-02-14T01:51:13.381Z,8.07
2023-02-14T01:56:40.481Z,8.03
2023-02-14T02:02:04.493Z,8.00
2023-02-14T02:07:31.449Z,7.93
2023-02-14T02:12:57.045Z,8.27
2023-02-14T02:18:26.633Z,8.80
2023-02-14T02:24:06.441Z,7.90
2023-02-14T02:29:41.055Z,8.67
2023-02-14T02:35:41.758Z,8.43
2023-02-14T02:41:14.855Z,8.67
2023-02-14T02:46:50.075Z,8.13
2023-02-14T02:52:35.223Z,7.33
2023-02-14T02:58:10.601Z,7.43
2023-02-14T03:03:54.461Z,8.30
2023-02-14T03:09:38.117Z,7.67
2023-02-14T03:15:24.800Z,8.57
2023-02-14T03:21:32.225Z,8.23
2023-02-14T03:27:27.494Z,7.80
2023-02-14T03:33:12.951Z,8.80
2023-02-14T03:39:05.039Z,8.47
2023-02-14T03:44:30.596Z,8.13
2023-02-14T03:49:58.990Z,7.57
2023-02-14T03:55:25.170Z,7.80
2023-02-14T04:00:51.902Z,8.23
2023-02-14T04:06:14.301Z,7.57
2023-02-14T04:11:40.113Z,7.43
2023-02-14T04:17:20.963Z,8.00
2023-02-14T04:22:43.182Z,7.97
2023-02-14T04:28:06.042Z,7.67
2023-02-14T04:33:30.138Z,7.73
2023-02-14T04:38:53.007Z,8.40
2023-02-14T04:44:17.848Z,8.17
2023-02-14T04:49:41.557Z,7.60
2023-02-14T04:55:04.875Z,7.83
2023-02-14T05:00:29.013Z,8.27
2023-02-14T05:05:53.392Z,8.67
2023-02-14T05:11:15.713Z,8.30
2023-02-14T05:16:39.221Z,8.47
2023-02-14T05:22:02.621Z,7.53
2023-02-14T05:27:25.840Z,6.97
2023-02-14T05:32:48.266Z,8.60
2023-02-14T05:38:10.841Z,7.60
2023-02-14T05:43:35.560Z,8.23
2023-02-14T05:48:57.833Z,6.93
2023-02-14T05:54:20.711Z,7.40
2023-02-14T05:59:45.425Z,7.90
2023-02-14T06:05:09.784Z,7.50
2023-02-14T06:10:34.948Z,8.10
2023-02-14T06:16:00.339Z,7.93
2023-02-14T06:21:24.174Z,7.93
2023-02-14T06:26:48.883Z,6.93
2023-02-14T06:32:13.874Z,8.20
2023-02-14T06:37:40.354Z,8.35
2023-02-14T06:43:04.763Z,9.00
2023-02-14T06:48:29.626Z,8.30
2023-02-14T06:53:54.007Z,8.40
2023-02-14T06:59:17.997Z,8.30
2023-02-14T07:04:42.569Z,8.50
2023-02-14T07:10:05.301Z,8.10
2023-02-14T07:15:29.263Z,8.10
2023-02-14T07:20:51.611Z,7.90
2023-02-14T07:26:16.256Z,7.17
2023-02-14T07:31:38.784Z,7.57
2023-02-14T07:37:01.097Z,6.70
2023-02-14T07:42:23.575Z,7.50
2023-02-14T07:47:46.588Z,6.83
2023-02-14T07:53:09.578Z,6.60
2023-02-14T07:58:31.837Z,7.17
2023-02-14T08:03:54.761Z,6.33
2023-02-14T08:09:18.878Z,6.63
2023-02-14T08:14:41.985Z,6.40
2023-02-14T08:20:04.453Z,7.53
2023-02-14T08:25:26.804Z,6.60
2023-02-14T08:30:50.445Z,6.43
2023-02-14T08:36:12.883Z,6.67
2023-02-14T08:41:36.728Z,6.37
2023-02-14T08:46:59.446Z,6.33
2023-02-14T08:52:22.032Z,6.60
2023-02-14T08:57:47.135Z,5.97
2023-02-14T09:03:11.180Z,5.47
2023-02-14T09:08:35.473Z,5.37
2023-02-14T09:13:59.673Z,5.53
2023-02-14T09:19:22.158Z,5.30
2023-02-14T09:24:46.769Z,5.80
2023-02-14T09:30:09.751Z,5.87
2023-02-14T09:35:32.637Z,5.23
2023-02-14T09:40:55.392Z,5.90
2023-02-14T09:46:20.780Z,5.00
2023-02-14T09:51:45.965Z,5.97
2023-02-14T09:57:52.709Z,6.47
2023-02-14T10:03:31.731Z,6.50
2023-02-14T10:09:29.433Z,5.53
2023-02-14T10:14:53.329Z,6.30
2023-02-14T10:20:24.800Z,6.07
2023-02-14T10:25:52.130Z,6.63
2023-02-14T10:31:44.589Z,6.07
2023-02-14T10:37:20.734Z,5.67
2023-02-14T10:43:24.417Z,5.95
2023-02-14T10:49:05.970Z,6.90
2023-02-14T10:54:45.488Z,6.42
2023-02-14T11:00:21.696Z,6.13
2023-02-14T11:06:01.314Z,6.53
2023-02-14T11:11:42.681Z,7.07
2023-02-14T11:17:06.939Z,6.25
2023-02-14T11:22:37.607Z,5.67
2023-02-14T11:28:09.741Z,5.77
2023-02-14T11:33:46.143Z,5.87
2023-02-14T11:39:37.557Z,6.17
2023-02-14T11:45:05.539Z,6.40
2023-02-14T11:50:43.324Z,6.20
2023-02-14T11:56:08.706Z,6.33
2023-02-14T12:01:41.774Z,5.77
2023-02-14T12:07:06.609Z,5.50
2023-02-14T12:12:42.714Z,5.70
2023-02-14T12:18:15.679Z,6.42
2023-02-14T12:24:27.079Z,5.20
2023-02-14T12:36:08.971Z,5.20
2023-02-14T12:42:05.144Z,4.87
2023-02-14T12:47:54.736Z,4.83
2023-02-14T12:53:43.439Z,4.95
2023-02-14T12:59:16.291Z,5.40
2023-02-14T13:05:06.654Z,4.92
2023-02-14T13:10:43.053Z,5.40
2023-02-14T13:21:59.711Z,4.43
2023-02-14T13:27:26.160Z,4.97
2023-02-14T13:32:52.344Z,4.40
2023-02-14T13:38:19.939Z,5.10
2023-02-14T13:44:05.507Z,4.67
2023-02-14T13:49:50.209Z,4.60
2023-02-14T13:55:18.256Z,4.78
2023-02-14T14:00:57.108Z,5.43
2023-02-14T14:06:26.606Z,4.30
2023-02-14T14:11:56.281Z,3.80
2023-02-14T14:17:26.335Z,4.40
2023-02-14T14:22:55.859Z,4.30
2023-02-14T14:28:27.005Z,4.33
2023-02-14T14:33:50.901Z,4.40
2023-02-14T14:39:15.625Z,4.42
2023-02-14T14:44:39.646Z,4.55
2023-02-14T14:50:08.278Z,10.90
2023-02-14T14:55:42.813Z,4.97
2023-02-14T15:01:08.199Z,4.47
2023-02-14T15:06:35.441Z,4.53
2023-02-14T15:12:19.065Z,4.10
2023-02-14T15:17:44.458Z,3.98
2023-02-14T15:23:08.231Z,4.58
2023-02-14T15:28:42.933Z,4.97
2023-02-14T15:34:05.408Z,4.17
2023-02-14T15:39:29.311Z,3.83
2023-02-14T15:44:51.675Z,3.87
2023-02-14T15:50:21.822Z,4.10
2023-02-14T15:55:47.077Z,3.83
2023-02-14T16:01:11.625Z,3.72
2023-02-14T16:06:50.213Z,4.47
2023-02-14T16:12:27.049Z,4.42
2023-02-14T16:17:53.515Z,4.72
2023-02-14T16:23:37.510Z,5.25
2023-02-14T16:29:00.296Z,4.33
2023-02-14T16:34:26.469Z,3.90
2023-02-14T16:39:52.087Z,4.00
2023-02-14T16:45:16.656Z,6.47
2023-02-14T16:50:39.026Z,4.30
2023-02-14T16:56:02.273Z,5.40
2023-02-14T17:01:24.559Z,6.73
2023-02-14T17:06:52.279Z,5.80
2023-02-14T17:12:20.316Z,8.00
2023-02-14T17:17:43.340Z,8.30
2023-02-14T17:23:05.712Z,7.07
2023-02-14T17:28:28.130Z,7.53
2023-02-14T17:33:51.577Z,69.53
2023-02-14T17:39:15.167Z,10.03
2023-02-14T17:44:37.826Z,7.65
2023-02-14T17:50:00.181Z,11.10
2023-02-14T17:55:22.620Z,9.40
2023-02-14T18:00:44.906Z,12.30
2023-02-14T18:06:11.227Z,8.57
2023-02-14T18:11:34.556Z,8.95
2023-02-14T18:16:57.752Z,7.45
2023-02-14T18:22:20.069Z,7.97
2023-02-14T18:27:43.703Z,8.00
2023-02-14T18:33:06.442Z,8.73
2023-02-14T18:38:28.656Z,8.07
2023-02-14T18:43:51.714Z,8.40
2023-02-14T18:49:15.783Z,8.97
2023-02-14T18:54:37.995Z,8.93
2023-02-14T19:00:00.773Z,10.38
2023-02-14T19:05:23.505Z,32.73
2023-02-14T19:10:46.351Z,9.57
2023-02-14T19:16:11.704Z,9.05
2023-02-14T19:21:38.398Z,8.37
2023-02-14T19:27:01.328Z,9.25
2023-02-14T19:32:23.760Z,10.93
2023-02-14T19:37:46.584Z,11.00
2023-02-14T19:43:08.885Z,11.27
2023-02-14T19:48:31.295Z,9.98
2023-02-14T19:53:54.495Z,10.40
2023-02-14T19:59:19.571Z,14.43
2023-02-14T20:04:43.347Z,14.03
2023-02-14T20:10:05.702Z,11.55
2023-02-14T20:15:29.412Z,11.77
2023-02-14T20:21:02.980Z,13.17
2023-02-14T20:26:28.075Z,16.43
2023-02-14T20:31:55.184Z,17.53
2023-02-14T20:37:17.533Z,15.45
2023-02-14T20:42:39.893Z,108.00
2023-02-14T20:48:03.865Z,16.53
2023-02-14T20:53:26.960Z,14.50
2023-02-14T20:58:50.194Z,13.77
2023-02-14T21:04:14.414Z,15.32
2023-02-14T21:09:38.505Z,15.90
2023-02-14T21:15:00.790Z,15.97
2023-02-14T21:20:24.198Z,15.40
2023-02-14T21:25:46.409Z,16.27
2023-02-14T21:31:21.326Z,19.27
2023-02-14T21:36:46.593Z,20.00
2023-02-14T21:42:10.943Z,18.37
2023-02-14T21:47:33.221Z,17.17
2023-02-14T21:52:55.417Z,17.53
2023-02-14T21:58:17.622Z,17.20
2023-02-14T22:03:40.252Z,16.33
2023-02-14T22:09:07.471Z,17.83
2023-02-14T22:14:29.903Z,17.27
2023-02-14T22:19:52.221Z,17.82
2023-02-14T22:25:14.427Z,18.73
2023-02-14T22:30:36.959Z,19.65
2023-02-14T22:36:02.991Z,26.07
2023-02-14T22:41:31.696Z,28.87
2023-02-14T22:46:54.512Z,31.23
2023-02-14T22:52:17.171Z,33.13
2023-02-14T22:57:39.538Z,33.67
2023-02-14T23:03:01.847Z,33.53
2023-02-14T23:08:24.331Z,40.80
2023-02-14T23:14:04.944Z,48.48
2023-02-14T23:19:53.199Z,54.13
2023-02-14T23:25:18.706Z,55.50
2023-02-14T23:30:40.894Z,50.75
2023-02-14T23:36:03.653Z,52.15
2023-02-14T23:41:47.896Z,51.98
2023-02-14T23:47:13.761Z,51.40
2023-02-14T23:52:38.531Z,50.60
2023-02-14T23:58:01.742Z,48.13
